createdAt,value
2023-01-12T00:03:23.759Z,14.07
2023-01-12T00:08:25.395Z,15.48
2023-01-12T00:13:28.966Z,11.63
2023-01-12T00:18:32.439Z,9.57
2023-01-12T00:23:34.139Z,13.27
2023-01-12T00:28:37.308Z,10.20
2023-01-12T00:33:39.752Z,15.75
2023-01-12T00:38:41.723Z,12.05
2023-01-12T00:44:01.605Z,12.90
2023-01-12T00:49:04.580Z,16.50
2023-01-12T00:54:08.365Z,15.00
2023-01-12T00:59:09.986Z,11.68
2023-01-12T01:04:11.696Z,15.70
2023-01-12T01:09:13.897Z,13.43
2023-01-12T01:14:15.777Z,11.88
2023-01-12T01:19:17.577Z,14.55
2023-01-12T01:24:19.276Z,14.48
2023-01-12T01:29:21.543Z,12.82
2023-01-12T01:34:26.599Z,14.98
2023-01-12T01:39:28.669Z,15.88
2023-01-12T01:44:30.298Z,13.70
2023-01-12T01:49:40.652Z,15.68
2023-01-12T01:55:06.230Z,11.57
2023-01-12T02:00:10.667Z,16.23
2023-01-12T02:05:19.078Z,15.27
2023-01-12T02:10:21.283Z,12.73
2023-01-12T02:15:45.616Z,14.40
2023-01-12T02:20:48.682Z,14.10
2023-01-12T02:26:19.616Z,15.13
2023-01-12T02:31:44.788Z,12.48
2023-01-12T02:36:54.040Z,14.55
2023-01-12T02:42:23.090Z,13.60
2023-01-12T02:47:37.278Z,13.73
2023-01-12T02:52:43.985Z,14.35
2023-01-12T03:02:48.020Z,11.88
2023-01-12T03:07:55.211Z,11.30
2023-01-12T03:13:00.724Z,13.45
2023-01-12T03:18:09.741Z,14.32
2023-01-12T03:23:17.092Z,21.80
2023-01-12T03:28:21.438Z,12.48
2023-01-12T03:33:24.922Z,12.45
2023-01-12T03:38:33.589Z,14.50
2023-01-12T03:43:43.614Z,11.73
2023-01-12T03:48:52.596Z,13.35
2023-01-12T03:53:56.146Z,10.40
2023-01-12T03:58:58.470Z,16.10
2023-01-12T04:04:00.111Z,10.32
2023-01-12T04:09:01.767Z,10.45
2023-01-12T04:14:03.459Z,9.85
2023-01-12T04:19:05.154Z,14.50
2023-01-12T04:24:06.866Z,16.35
2023-01-12T04:29:08.481Z,11.70
2023-01-12T04:34:10.293Z,14.20
2023-01-12T04:39:13.893Z,13.07
2023-01-12T04:44:15.597Z,12.82
2023-01-12T04:49:17.496Z,9.77
2023-01-12T04:54:19.162Z,9.90
2023-01-12T04:59:20.768Z,9.25
2023-01-12T05:04:22.409Z,10.63
2023-01-12T05:09:42.680Z,10.35
2023-01-12T05:14:44.338Z,10.25
2023-01-12T05:19:46.002Z,14.57
2023-01-12T05:24:48.218Z,12.48
2023-01-12T05:29:49.880Z,9.98
2023-01-12T05:34:51.597Z,10.10
2023-01-12T05:39:53.296Z,8.45
2023-01-12T05:44:54.927Z,9.75
2023-01-12T05:49:56.630Z,14.43
2023-01-12T05:54:58.287Z,11.60
2023-01-12T05:59:59.902Z,16.50
2023-01-12T06:05:01.551Z,14.68
2023-01-12T06:10:04.408Z,12.77
2023-01-12T06:15:06.684Z,9.95
2023-01-12T06:20:09.203Z,9.52
2023-01-12T06:25:12.186Z,11.88
2023-01-12T06:30:14.071Z,9.23
2023-01-12T06:35:21.973Z,8.95
2023-01-12T06:40:23.682Z,9.80
2023-01-12T06:45:25.295Z,8.30
2023-01-12T06:50:27.500Z,9.60
2023-01-12T06:55:29.569Z,7.15
2023-01-12T07:00:31.973Z,6.55
2023-01-12T07:05:33.643Z,9.68
2023-01-12T07:10:36.673Z,12.35
2023-01-12T07:15:38.450Z,11.55
2023-01-12T07:20:40.115Z,11.93
2023-01-12T07:25:41.820Z,13.35
2023-01-12T07:30:43.796Z,11.57
2023-01-12T07:35:45.658Z,10.68
2023-01-12T07:40:47.271Z,13.02
2023-01-12T07:45:48.975Z,13.95
2023-01-12T07:50:51.466Z,14.27
2023-01-12T07:55:53.113Z,14.10
2023-01-12T08:00:58.795Z,16.38
2023-01-12T08:06:01.078Z,14.63
2023-01-12T08:11:04.624Z,12.18
2023-01-12T08:16:20.022Z,13.93
2023-01-12T08:21:26.731Z,16.00
2023-01-12T08:31:34.364Z,17.00
2023-01-12T08:36:37.609Z,15.55
2023-01-12T08:41:42.420Z,15.50
2023-01-12T08:46:52.862Z,21.15
2023-01-12T08:51:55.230Z,16.98
2023-01-12T08:56:57.133Z,20.98
2023-01-12T09:01:58.909Z,19.23
2023-01-12T09:07:00.912Z,22.55
2023-01-12T09:12:02.889Z,20.77
2023-01-12T09:17:05.864Z,20.45
2023-01-12T09:22:08.020Z,15.90
2023-01-12T09:27:10.785Z,13.10
2023-01-12T09:32:12.436Z,14.63
2023-01-12T09:37:14.487Z,17.23
2023-01-12T09:42:40.384Z,20.27
2023-01-12T09:47:56.463Z,14.90
2023-01-12T09:53:00.811Z,16.73
2023-01-12T09:58:37.921Z,15.25
2023-01-12T10:03:42.295Z,17.50
2023-01-12T10:08:51.280Z,13.43
2023-01-12T10:14:21.899Z,13.93
2023-01-12T10:20:04.591Z,18.23
2023-01-12T10:25:14.313Z,12.30
2023-01-12T10:30:20.881Z,13.25
2023-01-12T10:35:25.464Z,15.35
2023-01-12T10:40:32.754Z,12.30
2023-01-12T10:45:34.416Z,12.48
2023-01-12T10:50:37.498Z,14.07
2023-01-12T10:55:41.951Z,13.18
2023-01-12T11:00:52.169Z,13.05
2023-01-12T11:05:53.926Z,11.93
2023-01-12T11:10:55.703Z,15.90
2023-01-12T11:16:18.068Z,10.80
2023-01-12T11:21:25.777Z,12.52
2023-01-12T11:26:35.351Z,10.88
2023-01-12T11:31:44.269Z,13.20
2023-01-12T11:36:54.161Z,11.25
2023-01-12T11:42:18.323Z,10.90
2023-01-12T11:47:54.107Z,10.85
2023-01-12T11:52:57.026Z,12.18
2023-01-12T11:58:08.909Z,7.97
2023-01-12T12:03:43.172Z,12.20
2023-01-12T12:08:47.600Z,7.05
2023-01-12T12:13:58.215Z,8.43
2023-01-12T12:19:33.783Z,7.43
2023-01-12T12:25:14.526Z,6.70
2023-01-12T12:30:34.721Z,8.45
2023-01-12T12:35:54.894Z,8.82
2023-01-12T12:41:34.234Z,6.28
2023-01-12T12:47:08.122Z,6.55
2023-01-12T12:52:12.942Z,5.85
2023-01-12T12:57:15.534Z,4.50
2023-01-12T13:02:39.074Z,5.93
2023-01-12T13:07:51.339Z,9.55
2023-01-12T13:12:58.568Z,6.70
2023-01-12T13:18:00.460Z,6.43
2023-01-12T13:23:02.209Z,4.38
2023-01-12T13:28:06.219Z,3.65
2023-01-12T13:33:28.199Z,4.55
2023-01-12T13:38:39.163Z,7.15
2023-01-12T13:43:50.324Z,10.68
2023-01-12T13:48:55.276Z,9.27
2023-01-12T13:54:02.626Z,6.68
2023-01-12T13:59:06.885Z,9.35
2023-01-12T14:04:21.613Z,7.43
2023-01-12T14:09:35.051Z,6.97
2023-01-12T14:15:07.332Z,4.65
2023-01-12T14:20:16.348Z,6.75
2023-01-12T14:25:26.029Z,6.07
2023-01-12T14:30:28.952Z,5.47
2023-01-12T14:35:31.520Z,6.50
2023-01-12T14:40:34.616Z,8.48
2023-01-12T14:45:55.306Z,4.53
2023-01-12T14:51:14.654Z,5.57
2023-01-12T14:56:16.695Z,6.20
2023-01-12T15:01:31.275Z,7.00
2023-01-12T15:06:40.704Z,4.97
2023-01-12T15:11:42.496Z,6.05
2023-01-12T15:17:02.500Z,5.07
2023-01-12T15:22:28.023Z,5.15
2023-01-12T15:27:29.937Z,9.00
2023-01-12T15:32:47.813Z,7.30
2023-01-12T15:37:51.816Z,11.63
2023-01-12T15:42:53.836Z,11.27
2023-01-12T15:47:56.314Z,7.53
2023-01-12T15:53:00.019Z,9.77
2023-01-12T15:58:02.033Z,8.68
2023-01-12T16:03:04.388Z,11.63
2023-01-12T16:08:06.031Z,9.23
2023-01-12T16:13:11.990Z,9.55
2023-01-12T16:18:13.607Z,7.83
2023-01-12T16:23:15.246Z,13.88
2023-01-12T16:28:16.947Z,8.90
2023-01-12T16:33:19.527Z,7.68
2023-01-12T16:38:21.206Z,7.60
2023-01-12T16:43:24.197Z,13.65
2023-01-12T16:48:25.834Z,8.65
2023-01-12T16:53:27.743Z,8.57
2023-01-12T16:58:29.440Z,8.32
2023-01-12T17:03:31.278Z,7.13
2023-01-12T17:08:33.029Z,10.48
2023-01-12T17:13:35.263Z,8.35
2023-01-12T17:18:38.642Z,9.07
2023-01-12T17:23:42.041Z,10.88
2023-01-12T17:28:44.015Z,10.25
2023-01-12T17:33:46.600Z,11.10
2023-01-12T17:38:48.310Z,13.10
2023-01-12T17:43:50.612Z,13.35
2023-01-12T17:48:52.385Z,8.05
2023-01-12T17:53:55.423Z,6.13
2023-01-12T17:58:57.847Z,12.48
2023-01-12T18:04:00.491Z,10.00
2023-01-12T18:09:02.312Z,7.57
2023-01-12T18:14:05.409Z,7.40
2023-01-12T18:19:10.516Z,8.02
2023-01-12T18:24:12.228Z,7.60
2023-01-12T18:29:14.293Z,8.13
2023-01-12T18:34:19.678Z,7.78
2023-01-12T18:39:21.711Z,11.02
2023-01-12T18:44:24.251Z,7.13
2023-01-12T18:49:28.748Z,7.47
2023-01-12T18:54:31.677Z,7.13
2023-01-12T18:59:33.556Z,7.40
2023-01-12T19:04:56.271Z,7.03
2023-01-12T19:09:59.215Z,15.55
2023-01-12T19:15:19.833Z,20.00
2023-01-12T19:20:21.530Z,16.00
2023-01-12T19:25:42.980Z,19.17
2023-01-12T19:30:47.240Z,18.70
2023-01-12T19:35:49.077Z,16.40
2023-01-12T19:40:54.914Z,14.07
2023-01-12T19:46:00.757Z,14.47
2023-01-12T19:51:11.133Z,13.87
2023-01-12T19:56:14.982Z,17.13
2023-01-12T20:01:22.294Z,15.65
2023-01-12T20:06:25.523Z,10.68
2023-01-12T20:11:29.204Z,9.85
2023-01-12T20:16:31.364Z,9.55
2023-01-12T20:21:33.757Z,10.38
2023-01-12T20:26:35.539Z,12.93
2023-01-12T20:31:37.732Z,13.18
2023-01-12T20:36:41.740Z,16.13
2023-01-12T20:41:44.178Z,14.77
2023-01-12T20:46:46.401Z,12.65
2023-01-12T20:51:49.524Z,11.85
2023-01-12T20:56:51.323Z,13.65
2023-01-12T21:01:53.157Z,15.80
2023-01-12T21:06:54.967Z,13.57
2023-01-12T21:11:56.803Z,11.15
2023-01-12T21:16:58.441Z,16.23
2023-01-12T21:22:00.439Z,12.57
2023-01-12T21:27:02.089Z,13.38
2023-01-12T21:32:04.046Z,12.38
2023-01-12T21:37:05.755Z,13.57
2023-01-12T21:42:25.861Z,13.68
2023-01-12T21:47:27.560Z,11.60
2023-01-12T21:52:33.109Z,11.35
2023-01-12T21:57:34.881Z,9.63
2023-01-12T22:02:36.499Z,13.63
2023-01-12T22:07:38.182Z,10.00
2023-01-12T22:12:39.881Z,9.10
2023-01-12T22:17:42.158Z,9.55
2023-01-12T22:22:44.537Z,8.20
2023-01-12T22:27:46.609Z,9.30
2023-01-12T22:32:48.712Z,15.95
2023-01-12T22:37:50.422Z,14.10
2023-01-12T22:43:10.294Z,8.65
2023-01-12T22:48:11.979Z,9.98
2023-01-12T22:53:13.867Z,6.85
2023-01-12T22:58:15.696Z,9.20
2023-01-12T23:03:17.684Z,9.02
2023-01-12T23:08:19.450Z,13.85
2023-01-12T23:13:21.530Z,8.95
2023-01-12T23:18:31.015Z,8.07
2023-01-12T23:23:32.769Z,13.15
2023-01-12T23:28:38.441Z,10.48
2023-01-12T23:33:41.861Z,10.68
2023-01-12T23:38:43.675Z,9.00
2023-01-12T23:43:49.761Z,8.07
2023-01-12T23:48:53.536Z,11.70
2023-01-12T23:54:00.630Z,10.90
2023-01-12T23:59:02.422Z,9.90
